createdAt,value
2023-01-23T00:04:02.556Z,7.20
2023-01-23T00:09:05.732Z,8.37
2023-01-23T00:14:10.795Z,8.00
2023-01-23T00:19:13.843Z,7.17
2023-01-23T00:24:16.739Z,5.77
2023-01-23T00:29:19.645Z,5.67
2023-01-23T00:34:22.557Z,7.13
2023-01-23T00:39:25.480Z,5.37
2023-01-23T00:44:28.693Z,4.93
2023-01-23T00:49:32.059Z,5.10
2023-01-23T00:54:35.146Z,5.40
2023-01-23T00:59:38.728Z,5.30
2023-01-23T01:04:41.734Z,4.43
2023-01-23T01:09:44.744Z,4.97
2023-01-23T01:14:47.807Z,4.70
2023-01-23T01:19:50.517Z,4.47
2023-01-23T01:24:53.727Z,3.67
2023-01-23T01:29:56.476Z,4.27
2023-01-23T01:34:59.482Z,4.73
2023-01-23T01:40:03.411Z,3.60
2023-01-23T01:45:07.385Z,4.77
2023-01-23T01:50:12.421Z,6.17
2023-01-23T01:55:15.570Z,7.60
2023-01-23T02:00:20.579Z,7.57
2023-01-23T02:05:31.166Z,6.37
2023-01-23T02:10:36.351Z,6.27
2023-01-23T02:15:40.334Z,6.13
2023-01-23T02:20:43.456Z,4.70
2023-01-23T02:25:53.386Z,3.93
2023-01-23T02:30:56.225Z,4.03
2023-01-23T02:36:01.981Z,4.13
2023-01-23T02:41:07.675Z,8.23
2023-01-23T02:46:11.994Z,9.13
2023-01-23T02:51:15.011Z,12.90
2023-01-23T02:56:18.542Z,10.07
2023-01-23T03:01:23.755Z,8.93
2023-01-23T03:06:26.788Z,7.43
2023-01-23T03:11:29.770Z,4.77
2023-01-23T03:16:36.553Z,4.43
2023-01-23T03:21:41.356Z,3.77
2023-01-23T03:26:47.627Z,3.27
2023-01-23T03:31:50.787Z,3.83
2023-01-23T03:36:54.025Z,4.60
2023-01-23T03:41:57.141Z,8.43
2023-01-23T03:47:00.039Z,6.13
2023-01-23T03:52:03.556Z,5.07
2023-01-23T03:57:06.986Z,7.17
2023-01-23T04:02:10.538Z,3.50
2023-01-23T04:07:14.499Z,4.97
2023-01-23T04:12:17.790Z,4.90
2023-01-23T04:17:20.706Z,5.87
2023-01-23T04:22:23.427Z,6.60
2023-01-23T04:27:26.170Z,6.00
2023-01-23T04:32:29.361Z,6.47
2023-01-23T04:37:32.261Z,4.23
2023-01-23T04:42:35.313Z,4.00
2023-01-23T04:47:38.552Z,2.93
2023-01-23T04:52:41.450Z,3.33
2023-01-23T04:57:44.307Z,3.80
2023-01-23T05:02:49.445Z,3.83
2023-01-23T05:07:52.677Z,3.70
2023-01-23T05:12:55.787Z,4.33
2023-01-23T05:17:58.915Z,3.40
2023-01-23T05:23:01.817Z,4.83
2023-01-23T05:28:04.832Z,4.77
2023-01-23T05:33:07.927Z,4.03
2023-01-23T05:38:12.538Z,4.13
2023-01-23T05:43:16.280Z,5.03
2023-01-23T05:48:19.187Z,4.50
2023-01-23T05:53:22.288Z,4.80
2023-01-23T05:58:25.208Z,5.17
2023-01-23T06:03:28.304Z,3.70
2023-01-23T06:08:31.216Z,3.53
2023-01-23T06:13:34.215Z,3.37
2023-01-23T06:18:37.181Z,2.83
2023-01-23T06:23:39.959Z,3.67
2023-01-23T06:28:42.884Z,3.17
2023-01-23T06:33:53.271Z,3.30
2023-01-23T06:38:57.500Z,3.10
2023-01-23T06:44:00.553Z,3.47
2023-01-23T06:49:06.283Z,4.30
2023-01-23T06:54:09.368Z,5.20
2023-01-23T06:59:12.478Z,5.57
2023-01-23T07:04:15.906Z,5.97
2023-01-23T07:09:18.968Z,5.20
2023-01-23T07:14:22.265Z,5.73
2023-01-23T07:19:25.471Z,5.40
2023-01-23T07:24:32.557Z,7.33
2023-01-23T07:29:35.474Z,9.20
2023-01-23T07:34:38.648Z,7.37
2023-01-23T07:39:41.355Z,7.40
2023-01-23T07:44:45.387Z,7.50
2023-01-23T07:49:48.548Z,5.70
2023-01-23T07:54:51.476Z,5.30
2023-01-23T07:59:54.446Z,5.20
2023-01-23T08:04:57.521Z,4.17
2023-01-23T08:10:00.650Z,3.97
2023-01-23T08:15:03.988Z,5.30
2023-01-23T08:20:07.644Z,3.67
2023-01-23T08:25:11.461Z,4.30
2023-01-23T08:30:14.758Z,3.33
2023-01-23T08:35:17.872Z,3.23
2023-01-23T08:40:20.878Z,3.30
2023-01-23T08:45:25.520Z,2.47
2023-01-23T08:50:28.685Z,2.70
2023-01-23T08:55:33.103Z,3.77
2023-01-23T09:00:36.254Z,3.17
2023-01-23T09:05:39.632Z,3.50
2023-01-23T09:10:43.098Z,2.37
2023-01-23T09:15:46.851Z,2.23
2023-01-23T09:20:49.952Z,4.50
2023-01-23T09:25:52.953Z,2.83
2023-01-23T09:30:55.820Z,4.23
2023-01-23T09:35:58.868Z,2.60
2023-01-23T09:41:17.611Z,4.73
2023-01-23T09:46:33.238Z,3.13
2023-01-23T09:51:45.479Z,3.17
2023-01-23T09:56:50.380Z,2.40
2023-01-23T10:01:53.281Z,2.67
2023-01-23T10:07:49.625Z,2.07
2023-01-23T10:13:16.504Z,2.37
2023-01-23T10:18:59.099Z,2.23
2023-01-23T10:29:43.992Z,4.03
2023-01-23T10:35:05.787Z,2.90
2023-01-23T10:40:40.245Z,2.55
2023-01-23T10:45:45.215Z,2.17
2023-01-23T10:50:57.206Z,3.30
2023-01-23T10:56:01.088Z,2.47
2023-01-23T11:01:06.160Z,2.83
2023-01-23T11:06:18.024Z,2.13
2023-01-23T11:11:32.526Z,2.13
2023-01-23T11:16:36.407Z,1.88
2023-01-23T11:21:50.926Z,2.30
2023-01-23T11:27:14.839Z,2.22
2023-01-23T11:32:17.971Z,2.40
2023-01-23T11:37:38.964Z,2.00
2023-01-23T11:42:43.430Z,2.25
2023-01-23T11:48:04.726Z,2.40
2023-01-23T11:53:48.593Z,2.00
2023-01-23T11:59:19.642Z,2.53
2023-01-23T12:04:43.378Z,2.75
2023-01-23T12:09:58.258Z,2.30
2023-01-23T12:16:01.780Z,2.20
2023-01-23T12:21:26.166Z,2.20
2023-01-23T12:26:31.513Z,2.37
2023-01-23T12:32:01.425Z,2.70
2023-01-23T12:37:30.776Z,3.53
2023-01-23T12:43:04.647Z,3.20
2023-01-23T12:48:24.392Z,2.30
2023-01-23T12:53:32.957Z,2.70
2023-01-23T12:58:41.815Z,2.77
2023-01-23T13:04:12.796Z,2.70
2023-01-23T13:10:02.524Z,2.60
2023-01-23T13:15:22.558Z,3.70
2023-01-23T13:21:11.339Z,4.33
2023-01-23T13:26:19.576Z,3.67
2023-01-23T13:31:34.812Z,3.17
2023-01-23T13:36:38.251Z,4.13
2023-01-23T13:41:41.430Z,5.07
2023-01-23T14:20:27.884Z,2.90
2023-01-23T14:25:31.702Z,5.50
2023-01-23T14:30:34.687Z,7.10
2023-01-23T14:35:40.162Z,7.07
2023-01-23T14:40:50.629Z,6.13
2023-01-23T14:46:21.056Z,5.40
2023-01-23T14:51:27.276Z,5.60
2023-01-23T14:56:36.845Z,6.27
2023-01-23T15:01:39.898Z,6.47
2023-01-23T15:06:42.866Z,4.30
2023-01-23T15:11:47.683Z,3.90
2023-01-23T15:16:52.281Z,3.17
2023-01-23T15:22:18.024Z,3.70
2023-01-23T15:27:24.695Z,6.67
2023-01-23T15:32:27.763Z,6.97
2023-01-23T15:37:30.811Z,10.13
2023-01-23T15:42:35.352Z,11.07
2023-01-23T15:47:38.552Z,39.30
2023-01-23T15:52:50.971Z,35.50
2023-01-23T15:57:55.429Z,23.03
2023-01-23T16:02:59.777Z,20.10
2023-01-23T16:08:04.466Z,18.50
2023-01-23T16:13:08.093Z,16.00
2023-01-23T16:18:10.966Z,13.40
2023-01-23T16:23:24.761Z,13.23
2023-01-23T16:28:27.733Z,13.37
2023-01-23T16:33:30.789Z,14.57
2023-01-23T16:38:33.860Z,9.93
2023-01-23T16:43:37.163Z,9.93
2023-01-23T16:48:40.442Z,8.47
2023-01-23T16:53:49.665Z,10.40
2023-01-23T16:58:52.793Z,10.83
2023-01-23T17:04:00.144Z,16.03
2023-01-23T17:09:03.129Z,12.83
2023-01-23T17:14:25.079Z,13.00
2023-01-23T17:19:36.587Z,10.77
2023-01-23T17:24:39.482Z,11.27
2023-01-23T17:29:42.551Z,9.03
2023-01-23T17:34:50.227Z,8.93
2023-01-23T17:39:53.598Z,8.63
2023-01-23T17:44:56.678Z,9.37
2023-01-23T17:50:01.162Z,9.60
2023-01-23T17:55:05.470Z,19.70
2023-01-23T18:00:12.295Z,20.60
2023-01-23T18:05:15.943Z,22.40
2023-01-23T18:10:21.161Z,14.73
2023-01-23T18:15:39.977Z,10.30
2023-01-23T18:20:43.380Z,10.70
2023-01-23T18:25:46.835Z,7.70
2023-01-23T18:31:09.515Z,8.87
2023-01-23T18:36:53.557Z,9.57
2023-01-23T18:42:23.927Z,12.27
2023-01-23T18:47:27.655Z,13.83
2023-01-23T18:52:51.954Z,13.57
2023-01-23T18:58:25.821Z,10.80
2023-01-23T19:03:43.032Z,9.67
2023-01-23T19:08:48.259Z,7.73
2023-01-23T19:14:20.901Z,8.37
2023-01-23T19:19:47.532Z,8.77
2023-01-23T19:24:50.688Z,11.53
2023-01-23T19:29:53.872Z,10.27
2023-01-23T19:35:02.722Z,11.17
2023-01-23T19:40:16.896Z,8.93
2023-01-23T19:45:20.926Z,9.03
2023-01-23T19:50:24.114Z,7.80
2023-01-23T19:55:30.777Z,8.77
2023-01-23T20:00:38.438Z,6.83
2023-01-23T20:05:41.390Z,5.70
2023-01-23T20:10:44.431Z,5.30
2023-01-23T20:15:50.446Z,4.90
2023-01-23T20:20:59.825Z,3.87
2023-01-23T20:26:02.905Z,4.60
2023-01-23T20:31:12.415Z,4.00
2023-01-23T20:36:16.494Z,9.03
2023-01-23T20:41:20.848Z,7.00
2023-01-23T20:46:23.817Z,5.27
2023-01-23T20:51:27.429Z,5.10
2023-01-23T20:56:30.440Z,4.27
2023-01-23T21:01:55.413Z,7.20
2023-01-23T21:06:59.808Z,7.23
2023-01-23T21:12:03.147Z,16.70
2023-01-23T21:17:06.687Z,10.50
2023-01-23T21:22:10.306Z,9.23
2023-01-23T21:27:13.942Z,11.37
2023-01-23T21:32:16.912Z,9.43
2023-01-23T21:37:20.252Z,8.00
2023-01-23T21:42:23.296Z,7.33
2023-01-23T21:47:26.201Z,6.20
2023-01-23T21:52:30.036Z,6.60
2023-01-23T21:57:32.816Z,7.27
2023-01-23T22:02:35.714Z,4.80
2023-01-23T22:07:38.711Z,5.83
2023-01-23T22:12:41.750Z,5.53
2023-01-23T22:17:45.736Z,5.33
2023-01-23T22:22:48.832Z,4.83
2023-01-23T22:27:52.137Z,5.93
2023-01-23T22:32:55.969Z,6.40
2023-01-23T22:37:58.827Z,8.00
2023-01-23T22:43:02.925Z,8.63
2023-01-23T22:48:06.422Z,10.03
2023-01-23T22:53:09.341Z,8.60
2023-01-23T22:58:12.482Z,6.40
2023-01-23T23:03:15.392Z,6.83
2023-01-23T23:08:18.271Z,8.87
2023-01-23T23:13:21.297Z,8.67
2023-01-23T23:18:24.300Z,5.97
2023-01-23T23:23:28.783Z,5.70
2023-01-23T23:28:33.125Z,6.30
2023-01-23T23:33:36.805Z,5.90
2023-01-23T23:38:39.682Z,5.53
2023-01-23T23:43:44.031Z,5.97
2023-01-23T23:48:48.193Z,6.40
2023-01-23T23:53:51.121Z,5.97
2023-01-23T23:58:55.872Z,6.70
